sensor_id;sensor_type;location;lat;lon;timestamp;pressure;altitude;pressure_sealevel;temperature
64960;BMP180;51487;52.266;10.542;2023-04-25T00:01:15;99694.00;;;7.80
64960;BMP180;51487;52.266;10.542;2023-04-25T00:03:40;99683.00;;;7.80
64960;BMP180;51487;52.266;10.542;2023-04-25T00:06:06;99691.00;;;7.80
64960;BMP180;51487;52.266;10.542;2023-04-25T00:08:33;99692.00;;;7.80
64960;BMP180;51487;52.266;10.542;2023-04-25T00:10:58;99693.00;;;7.70
64960;BMP180;51487;52.266;10.542;2023-04-25T00:13:25;99704.00;;;7.70
64960;BMP180;51487;52.266;10.542;2023-04-25T00:15:51;99696.00;;;7.60
64960;BMP180;51487;52.266;10.542;2023-04-25T00:18:21;99695.00;;;7.60
64960;BMP180;51487;52.266;10.542;2023-04-25T00:20:47;99706.00;;;7.60
64960;BMP180;51487;52.266;10.542;2023-04-25T00:23:13;99706.00;;;7.60
64960;BMP180;51487;52.266;10.542;2023-04-25T00:25:47;99701.00;;;7.50
64960;BMP180;51487;52.266;10.542;2023-04-25T00:28:14;99701.00;;;7.50
64960;BMP180;51487;52.266;10.542;2023-04-25T00:30:40;99702.00;;;7.50
64960;BMP180;51487;52.266;10.542;2023-04-25T00:33:07;99687.00;;;7.60
64960;BMP180;51487;52.266;10.542;2023-04-25T00:35:33;99698.00;;;7.50
64960;BMP180;51487;52.266;10.542;2023-04-25T00:37:59;99691.00;;;7.60
64960;BMP180;51487;52.266;10.542;2023-04-25T00:40:26;99699.00;;;7.40
64960;BMP180;51487;52.266;10.542;2023-04-25T00:42:52;99699.00;;;7.50
64960;BMP180;51487;52.266;10.542;2023-04-25T00:45:18;99697.00;;;7.40
64960;BMP180;51487;52.266;10.542;2023-04-25T00:47:44;99686.00;;;7.40
64960;BMP180;51487;52.266;10.542;2023-04-25T00:50:11;99692.00;;;7.50
64960;BMP180;51487;52.266;10.542;2023-04-25T00:52:38;99703.00;;;7.50
64960;BMP180;51487;52.266;10.542;2023-04-25T00:55:06;99701.00;;;7.50
64960;BMP180;51487;52.266;10.542;2023-04-25T00:57:32;99697.00;;;7.40
64960;BMP180;51487;52.266;10.542;2023-04-25T00:59:58;99696.00;;;7.40
64960;BMP180;51487;52.266;10.542;2023-04-25T01:02:25;99707.00;;;7.40
64960;BMP180;51487;52.266;10.542;2023-04-25T01:04:52;99695.00;;;7.50
64960;BMP180;51487;52.266;10.542;2023-04-25T01:07:18;99701.00;;;7.50
64960;BMP180;51487;52.266;10.542;2023-04-25T01:09:45;99686.00;;;7.50
64960;BMP180;51487;52.266;10.542;2023-04-25T01:12:11;99682.00;;;7.40
64960;BMP180;51487;52.266;10.542;2023-04-25T01:14:37;99686.00;;;7.40
64960;BMP180;51487;52.266;10.542;2023-04-25T01:17:04;99683.00;;;7.30
64960;BMP180;51487;52.266;10.542;2023-04-25T01:19:30;99679.00;;;7.40
64960;BMP180;51487;52.266;10.542;2023-04-25T01:21:56;99691.00;;;7.50
64960;BMP180;51487;52.266;10.542;2023-04-25T01:24:22;99697.00;;;7.60
64960;BMP180;51487;52.266;10.542;2023-04-25T01:26:48;99692.00;;;7.50
64960;BMP180;51487;52.266;10.542;2023-04-25T01:29:18;99698.00;;;7.50
64960;BMP180;51487;52.266;10.542;2023-04-25T01:31:45;99697.00;;;7.50
64960;BMP180;51487;52.266;10.542;2023-04-25T01:34:14;99700.00;;;7.30
64960;BMP180;51487;52.266;10.542;2023-04-25T01:36:40;99702.00;;;7.30
64960;BMP180;51487;52.266;10.542;2023-04-25T01:39:06;99703.00;;;7.30
64960;BMP180;51487;52.266;10.542;2023-04-25T01:41:33;99701.00;;;7.40
64960;BMP180;51487;52.266;10.542;2023-04-25T01:44:00;99701.00;;;7.40
64960;BMP180;51487;52.266;10.542;2023-04-25T01:46:26;99697.00;;;7.40
64960;BMP180;51487;52.266;10.542;2023-04-25T01:48:52;99694.00;;;7.40
64960;BMP180;51487;52.266;10.542;2023-04-25T01:51:19;99699.00;;;7.30
64960;BMP180;51487;52.266;10.542;2023-04-25T01:53:44;99696.00;;;7.20
64960;BMP180;51487;52.266;10.542;2023-04-25T01:56:10;99703.00;;;7.30
64960;BMP180;51487;52.266;10.542;2023-04-25T01:58:36;99711.00;;;7.20
64960;BMP180;51487;52.266;10.542;2023-04-25T02:01:01;99699.00;;;7.20
64960;BMP180;51487;52.266;10.542;2023-04-25T02:03:27;99706.00;;;7.20
64960;BMP180;51487;52.266;10.542;2023-04-25T02:05:52;99706.00;;;7.30
64960;BMP180;51487;52.266;10.542;2023-04-25T02:08:18;99704.00;;;7.20
64960;BMP180;51487;52.266;10.542;2023-04-25T02:10:44;99716.00;;;7.20
64960;BMP180;51487;52.266;10.542;2023-04-25T02:13:09;99714.00;;;7.20
64960;BMP180;51487;52.266;10.542;2023-04-25T02:15:35;99701.00;;;7.30
64960;BMP180;51487;52.266;10.542;2023-04-25T02:18:01;99716.00;;;7.10
64960;BMP180;51487;52.266;10.542;2023-04-25T02:20:28;99721.00;;;7.10
64960;BMP180;51487;52.266;10.542;2023-04-25T02:22:55;99713.00;;;7.20
64960;BMP180;51487;52.266;10.542;2023-04-25T02:25:21;99711.00;;;7.30
64960;BMP180;51487;52.266;10.542;2023-04-25T02:27:48;99713.00;;;7.20
64960;BMP180;51487;52.266;10.542;2023-04-25T02:30:13;99714.00;;;7.30
64960;BMP180;51487;52.266;10.542;2023-04-25T02:32:40;99714.00;;;7.30
64960;BMP180;51487;52.266;10.542;2023-04-25T02:35:06;99703.00;;;7.20
64960;BMP180;51487;52.266;10.542;2023-04-25T02:37:37;99701.00;;;7.10
64960;BMP180;51487;52.266;10.542;2023-04-25T02:40:04;99702.00;;;7.00
64960;BMP180;51487;52.266;10.542;2023-04-25T02:42:30;99698.00;;;7.20
64960;BMP180;51487;52.266;10.542;2023-04-25T02:44:56;99696.00;;;7.10
64960;BMP180;51487;52.266;10.542;2023-04-25T02:47:22;99692.00;;;7.10
64960;BMP180;51487;52.266;10.542;2023-04-25T02:49:47;99698.00;;;7.10
64960;BMP180;51487;52.266;10.542;2023-04-25T02:52:13;99703.00;;;7.10
64960;BMP180;51487;52.266;10.542;2023-04-25T02:54:39;99707.00;;;7.10
64960;BMP180;51487;52.266;10.542;2023-04-25T02:57:06;99697.00;;;7.20
64960;BMP180;51487;52.266;10.542;2023-04-25T02:59:32;99696.00;;;7.10
64960;BMP180;51487;52.266;10.542;2023-04-25T03:01:58;99699.00;;;7.00
64960;BMP180;51487;52.266;10.542;2023-04-25T03:04:24;99706.00;;;7.10
64960;BMP180;51487;52.266;10.542;2023-04-25T03:06:50;99705.00;;;7.00
64960;BMP180;51487;52.266;10.542;2023-04-25T03:09:16;99702.00;;;7.10
64960;BMP180;51487;52.266;10.542;2023-04-25T03:11:44;99699.00;;;6.90
64960;BMP180;51487;52.266;10.542;2023-04-25T03:14:10;99700.00;;;7.00
64960;BMP180;51487;52.266;10.542;2023-04-25T03:16:36;99706.00;;;7.00
64960;BMP180;51487;52.266;10.542;2023-04-25T03:19:02;99706.00;;;7.10
64960;BMP180;51487;52.266;10.542;2023-04-25T03:21:29;99704.00;;;6.90
64960;BMP180;51487;52.266;10.542;2023-04-25T03:23:57;99705.00;;;7.00
64960;BMP180;51487;52.266;10.542;2023-04-25T03:26:23;99705.00;;;7.00
64960;BMP180;51487;52.266;10.542;2023-04-25T03:28:48;99704.00;;;7.00
64960;BMP180;51487;52.266;10.542;2023-04-25T03:31:14;99697.00;;;6.90
64960;BMP180;51487;52.266;10.542;2023-04-25T03:33:39;99710.00;;;6.80
64960;BMP180;51487;52.266;10.542;2023-04-25T03:36:05;99724.00;;;6.80
64960;BMP180;51487;52.266;10.542;2023-04-25T03:38:31;99726.00;;;6.80
64960;BMP180;51487;52.266;10.542;2023-04-25T03:40:57;99730.00;;;6.90
64960;BMP180;51487;52.266;10.542;2023-04-25T03:43:23;99725.00;;;6.90
64960;BMP180;51487;52.266;10.542;2023-04-25T03:45:48;99739.00;;;6.70
64960;BMP180;51487;52.266;10.542;2023-04-25T03:48:14;99740.00;;;6.70
64960;BMP180;51487;52.266;10.542;2023-04-25T03:50:39;99746.00;;;6.50
64960;BMP180;51487;52.266;10.542;2023-04-25T03:53:05;99757.00;;;6.30
64960;BMP180;51487;52.266;10.542;2023-04-25T03:55:30;99761.00;;;6.10
64960;BMP180;51487;52.266;10.542;2023-04-25T03:57:57;99765.00;;;6.00
64960;BMP180;51487;52.266;10.542;2023-04-25T04:00:24;99762.00;;;6.20
64960;BMP180;51487;52.266;10.542;2023-04-25T04:02:50;99762.00;;;6.10
64960;BMP180;51487;52.266;10.542;2023-04-25T04:05:16;99775.00;;;5.90
64960;BMP180;51487;52.266;10.542;2023-04-25T04:07:41;99776.00;;;5.80
64960;BMP180;51487;52.266;10.542;2023-04-25T04:10:11;99775.00;;;6.00
64960;BMP180;51487;52.266;10.542;2023-04-25T04:12:37;99772.00;;;6.00
64960;BMP180;51487;52.266;10.542;2023-04-25T04:15:06;99776.00;;;5.90
64960;BMP180;51487;52.266;10.542;2023-04-25T04:17:33;99787.00;;;6.10
64960;BMP180;51487;52.266;10.542;2023-04-25T04:19:59;99777.00;;;6.20
64960;BMP180;51487;52.266;10.542;2023-04-25T04:22:25;99789.00;;;6.20
64960;BMP180;51487;52.266;10.542;2023-04-25T04:24:51;99793.00;;;6.30
64960;BMP180;51487;52.266;10.542;2023-04-25T04:27:21;99792.00;;;6.10
64960;BMP180;51487;52.266;10.542;2023-04-25T04:29:46;99789.00;;;6.00
64960;BMP180;51487;52.266;10.542;2023-04-25T04:32:13;99796.00;;;6.30
64960;BMP180;51487;52.266;10.542;2023-04-25T04:34:39;99799.00;;;6.10
64960;BMP180;51487;52.266;10.542;2023-04-25T04:37:06;99806.00;;;6.20
64960;BMP180;51487;52.266;10.542;2023-04-25T04:39:33;99812.00;;;6.20
64960;BMP180;51487;52.266;10.542;2023-04-25T04:42:00;99811.00;;;6.20
64960;BMP180;51487;52.266;10.542;2023-04-25T04:44:30;99811.00;;;5.90
64960;BMP180;51487;52.266;10.542;2023-04-25T04:46:59;99821.00;;;6.20
64960;BMP180;51487;52.266;10.542;2023-04-25T04:49:25;99817.00;;;6.20
64960;BMP180;51487;52.266;10.542;2023-04-25T04:51:51;99812.00;;;6.30
64960;BMP180;51487;52.266;10.542;2023-04-25T04:54:17;99825.00;;;6.40
64960;BMP180;51487;52.266;10.542;2023-04-25T04:56:43;99829.00;;;6.40
64960;BMP180;51487;52.266;10.542;2023-04-25T04:59:08;99833.00;;;6.40
64960;BMP180;51487;52.266;10.542;2023-04-25T05:01:34;99830.00;;;6.50
64960;BMP180;51487;52.266;10.542;2023-04-25T05:04:03;99831.00;;;6.60
64960;BMP180;51487;52.266;10.542;2023-04-25T05:06:29;99831.00;;;6.60
64960;BMP180;51487;52.266;10.542;2023-04-25T05:08:56;99832.00;;;6.80
64960;BMP180;51487;52.266;10.542;2023-04-25T05:11:23;99837.00;;;6.40
64960;BMP180;51487;52.266;10.542;2023-04-25T05:13:51;99830.00;;;6.40
64960;BMP180;51487;52.266;10.542;2023-04-25T05:16:17;99835.00;;;6.50
64960;BMP180;51487;52.266;10.542;2023-04-25T05:18:43;99845.00;;;6.70
64960;BMP180;51487;52.266;10.542;2023-04-25T05:21:09;99841.00;;;6.60
64960;BMP180;51487;52.266;10.542;2023-04-25T05:23:34;99843.00;;;6.40
64960;BMP180;51487;52.266;10.542;2023-04-25T05:26:00;99848.00;;;6.60
64960;BMP180;51487;52.266;10.542;2023-04-25T05:28:26;99845.00;;;6.60
64960;BMP180;51487;52.266;10.542;2023-04-25T05:30:51;99849.00;;;6.70
64960;BMP180;51487;52.266;10.542;2023-04-25T05:33:17;99850.00;;;6.50
64960;BMP180;51487;52.266;10.542;2023-04-25T05:35:43;99852.00;;;6.70
64960;BMP180;51487;52.266;10.542;2023-04-25T05:38:08;99852.00;;;6.90
64960;BMP180;51487;52.266;10.542;2023-04-25T05:40:34;99851.00;;;6.90
64960;BMP180;51487;52.266;10.542;2023-04-25T05:43:00;99858.00;;;7.00
64960;BMP180;51487;52.266;10.542;2023-04-25T05:45:25;99860.00;;;6.80
64960;BMP180;51487;52.266;10.542;2023-04-25T05:47:51;99866.00;;;6.90
64960;BMP180;51487;52.266;10.542;2023-04-25T05:50:16;99871.00;;;7.10
64960;BMP180;51487;52.266;10.542;2023-04-25T05:52:42;99866.00;;;7.10
64960;BMP180;51487;52.266;10.542;2023-04-25T05:55:08;99878.00;;;7.20
64960;BMP180;51487;52.266;10.542;2023-04-25T05:57:34;99868.00;;;7.00
64960;BMP180;51487;52.266;10.542;2023-04-25T06:00:00;99870.00;;;7.10
64960;BMP180;51487;52.266;10.542;2023-04-25T06:02:25;99868.00;;;7.10
64960;BMP180;51487;52.266;10.542;2023-04-25T06:04:51;99879.00;;;7.30
64960;BMP180;51487;52.266;10.542;2023-04-25T06:07:18;99895.00;;;7.40
64960;BMP180;51487;52.266;10.542;2023-04-25T06:09:45;99888.00;;;7.20
64960;BMP180;51487;52.266;10.542;2023-04-25T06:12:10;99893.00;;;7.10
64960;BMP180;51487;52.266;10.542;2023-04-25T06:14:36;99887.00;;;7.00
64960;BMP180;51487;52.266;10.542;2023-04-25T06:17:03;99884.00;;;6.90
64960;BMP180;51487;52.266;10.542;2023-04-25T06:19:34;99879.00;;;6.90
64960;BMP180;51487;52.266;10.542;2023-04-25T06:22:00;99883.00;;;6.60
64960;BMP180;51487;52.266;10.542;2023-04-25T06:24:26;99890.00;;;6.40
64960;BMP180;51487;52.266;10.542;2023-04-25T06:26:53;99898.00;;;6.50
64960;BMP180;51487;52.266;10.542;2023-04-25T06:29:18;99886.00;;;6.50
64960;BMP180;51487;52.266;10.542;2023-04-25T06:31:44;99888.00;;;6.60
64960;BMP180;51487;52.266;10.542;2023-04-25T06:34:10;99895.00;;;6.80
64960;BMP180;51487;52.266;10.542;2023-04-25T06:36:35;99895.00;;;6.80
64960;BMP180;51487;52.266;10.542;2023-04-25T06:39:01;99915.00;;;6.90
64960;BMP180;51487;52.266;10.542;2023-04-25T06:41:27;99909.00;;;7.10
64960;BMP180;51487;52.266;10.542;2023-04-25T06:43:52;99911.00;;;7.00
64960;BMP180;51487;52.266;10.542;2023-04-25T06:46:18;99918.00;;;7.00
64960;BMP180;51487;52.266;10.542;2023-04-25T06:48:43;99913.00;;;6.80
64960;BMP180;51487;52.266;10.542;2023-04-25T06:51:09;99907.00;;;6.90
64960;BMP180;51487;52.266;10.542;2023-04-25T06:53:35;99914.00;;;7.00
64960;BMP180;51487;52.266;10.542;2023-04-25T06:56:01;99906.00;;;7.30
64960;BMP180;51487;52.266;10.542;2023-04-25T06:58:27;99927.00;;;7.50
64960;BMP180;51487;52.266;10.542;2023-04-25T07:00:52;99919.00;;;7.60
64960;BMP180;51487;52.266;10.542;2023-04-25T07:03:18;99913.00;;;7.50
64960;BMP180;51487;52.266;10.542;2023-04-25T07:05:43;99911.00;;;7.90
64960;BMP180;51487;52.266;10.542;2023-04-25T07:08:10;99912.00;;;7.60
64960;BMP180;51487;52.266;10.542;2023-04-25T07:10:36;99919.00;;;7.60
64960;BMP180;51487;52.266;10.542;2023-04-25T07:13:01;99925.00;;;7.20
64960;BMP180;51487;52.266;10.542;2023-04-25T07:15:27;99925.00;;;7.50
64960;BMP180;51487;52.266;10.542;2023-04-25T07:17:53;99929.00;;;7.40
64960;BMP180;51487;52.266;10.542;2023-04-25T07:20:18;99924.00;;;7.30
64960;BMP180;51487;52.266;10.542;2023-04-25T07:22:43;99925.00;;;7.50
64960;BMP180;51487;52.266;10.542;2023-04-25T07:25:09;99927.00;;;7.50
64960;BMP180;51487;52.266;10.542;2023-04-25T07:27:35;99933.00;;;7.30
64960;BMP180;51487;52.266;10.542;2023-04-25T07:30:00;99929.00;;;7.70
64960;BMP180;51487;52.266;10.542;2023-04-25T07:32:26;99924.00;;;7.50
64960;BMP180;51487;52.266;10.542;2023-04-25T07:34:52;99930.00;;;7.60
64960;BMP180;51487;52.266;10.542;2023-04-25T07:37:17;99948.00;;;7.60
64960;BMP180;51487;52.266;10.542;2023-04-25T07:39:44;99933.00;;;7.70
64960;BMP180;51487;52.266;10.542;2023-04-25T07:42:12;99935.00;;;7.70
64960;BMP180;51487;52.266;10.542;2023-04-25T07:44:37;99933.00;;;7.60
64960;BMP180;51487;52.266;10.542;2023-04-25T07:47:07;99930.00;;;7.60
64960;BMP180;51487;52.266;10.542;2023-04-25T07:49:35;99941.00;;;7.30
64960;BMP180;51487;52.266;10.542;2023-04-25T07:52:02;99925.00;;;7.30
64960;BMP180;51487;52.266;10.542;2023-04-25T07:54:29;99934.00;;;7.80
64960;BMP180;51487;52.266;10.542;2023-04-25T07:56:55;99935.00;;;7.80
64960;BMP180;51487;52.266;10.542;2023-04-25T07:59:21;99938.00;;;8.00
64960;BMP180;51487;52.266;10.542;2023-04-25T08:01:47;99951.00;;;8.00
64960;BMP180;51487;52.266;10.542;2023-04-25T08:04:13;99948.00;;;7.90
64960;BMP180;51487;52.266;10.542;2023-04-25T08:06:39;99948.00;;;8.00
64960;BMP180;51487;52.266;10.542;2023-04-25T08:09:05;99947.00;;;8.00
64960;BMP180;51487;52.266;10.542;2023-04-25T08:11:31;99962.00;;;7.90
64960;BMP180;51487;52.266;10.542;2023-04-25T08:13:57;99956.00;;;8.30
64960;BMP180;51487;52.266;10.542;2023-04-25T08:16:22;99953.00;;;7.80
64960;BMP180;51487;52.266;10.542;2023-04-25T08:18:49;99964.00;;;8.10
64960;BMP180;51487;52.266;10.542;2023-04-25T08:21:15;99966.00;;;8.20
64960;BMP180;51487;52.266;10.542;2023-04-25T08:23:41;99950.00;;;8.60
64960;BMP180;51487;52.266;10.542;2023-04-25T08:26:06;99973.00;;;8.90
64960;BMP180;51487;52.266;10.542;2023-04-25T08:28:32;99972.00;;;9.00
64960;BMP180;51487;52.266;10.542;2023-04-25T08:30:57;99971.00;;;9.00
64960;BMP180;51487;52.266;10.542;2023-04-25T08:33:23;99966.00;;;9.30
64960;BMP180;51487;52.266;10.542;2023-04-25T08:35:48;99983.00;;;9.00
64960;BMP180;51487;52.266;10.542;2023-04-25T08:38:14;99988.00;;;8.80
64960;BMP180;51487;52.266;10.542;2023-04-25T08:40:40;99990.00;;;8.30
64960;BMP180;51487;52.266;10.542;2023-04-25T08:43:09;99995.00;;;8.30
64960;BMP180;51487;52.266;10.542;2023-04-25T08:45:40;100004.00;;;8.10
64960;BMP180;51487;52.266;10.542;2023-04-25T08:48:13;100004.00;;;8.00
64960;BMP180;51487;52.266;10.542;2023-04-25T08:50:52;100004.00;;;8.10
64960;BMP180;51487;52.266;10.542;2023-04-25T08:53:26;99999.00;;;8.20
64960;BMP180;51487;52.266;10.542;2023-04-25T08:55:57;100004.00;;;8.30
64960;BMP180;51487;52.266;10.542;2023-04-25T08:58:24;100010.00;;;8.40
64960;BMP180;51487;52.266;10.542;2023-04-25T09:00:51;100003.00;;;8.50
64960;BMP180;51487;52.266;10.542;2023-04-25T09:03:18;100014.00;;;8.70
64960;BMP180;51487;52.266;10.542;2023-04-25T09:05:44;100008.00;;;8.90
64960;BMP180;51487;52.266;10.542;2023-04-25T09:08:09;100019.00;;;8.40
64960;BMP180;51487;52.266;10.542;2023-04-25T09:10:36;100030.00;;;8.30
64960;BMP180;51487;52.266;10.542;2023-04-25T09:15:32;100035.00;;;8.00
64960;BMP180;51487;52.266;10.542;2023-04-25T09:17:59;100031.00;;;8.00
64960;BMP180;51487;52.266;10.542;2023-04-25T09:20:25;100035.00;;;8.00
64960;BMP180;51487;52.266;10.542;2023-04-25T09:23:04;100020.00;;;8.30
64960;BMP180;51487;52.266;10.542;2023-04-25T09:25:35;100027.00;;;8.40
64960;BMP180;51487;52.266;10.542;2023-04-25T09:28:05;100048.00;;;8.20
64960;BMP180;51487;52.266;10.542;2023-04-25T09:30:35;100037.00;;;8.40
64960;BMP180;51487;52.266;10.542;2023-04-25T09:33:09;100059.00;;;8.50
64960;BMP180;51487;52.266;10.542;2023-04-25T09:35:43;100058.00;;;8.50
64960;BMP180;51487;52.266;10.542;2023-04-25T09:38:11;100059.00;;;8.70
64960;BMP180;51487;52.266;10.542;2023-04-25T09:40:43;100056.00;;;8.80
64960;BMP180;51487;52.266;10.542;2023-04-25T09:43:20;100069.00;;;8.40
64960;BMP180;51487;52.266;10.542;2023-04-25T09:45:50;100073.00;;;8.40
64960;BMP180;51487;52.266;10.542;2023-04-25T09:48:21;100079.00;;;8.60
64960;BMP180;51487;52.266;10.542;2023-04-25T09:51:14;100081.00;;;8.20
64960;BMP180;51487;52.266;10.542;2023-04-25T09:53:41;100080.00;;;8.20
64960;BMP180;51487;52.266;10.542;2023-04-25T09:56:10;100085.00;;;8.30
64960;BMP180;51487;52.266;10.542;2023-04-25T09:58:38;100083.00;;;8.40
64960;BMP180;51487;52.266;10.542;2023-04-25T10:01:06;100086.00;;;8.50
64960;BMP180;51487;52.266;10.542;2023-04-25T10:03:35;100099.00;;;8.60
64960;BMP180;51487;52.266;10.542;2023-04-25T10:06:19;100079.00;;;8.70
64960;BMP180;51487;52.266;10.542;2023-04-25T10:08:49;100086.00;;;8.90
64960;BMP180;51487;52.266;10.542;2023-04-25T10:11:18;100087.00;;;9.00
64960;BMP180;51487;52.266;10.542;2023-04-25T10:13:46;100082.00;;;9.10
64960;BMP180;51487;52.266;10.542;2023-04-25T10:16:13;100083.00;;;9.50
64960;BMP180;51487;52.266;10.542;2023-04-25T10:18:38;100095.00;;;9.40
64960;BMP180;51487;52.266;10.542;2023-04-25T10:21:05;100089.00;;;9.20
64960;BMP180;51487;52.266;10.542;2023-04-25T10:23:32;100100.00;;;9.00
64960;BMP180;51487;52.266;10.542;2023-04-25T10:25:59;100098.00;;;9.10
64960;BMP180;51487;52.266;10.542;2023-04-25T10:28:26;100100.00;;;9.20
64960;BMP180;51487;52.266;10.542;2023-04-25T10:31:04;100094.00;;;9.00
64960;BMP180;51487;52.266;10.542;2023-04-25T10:33:40;100107.00;;;9.30
64960;BMP180;51487;52.266;10.542;2023-04-25T10:36:17;100112.00;;;8.60
64960;BMP180;51487;52.266;10.542;2023-04-25T10:38:45;100109.00;;;8.70
64960;BMP180;51487;52.266;10.542;2023-04-25T10:41:13;100105.00;;;8.80
64960;BMP180;51487;52.266;10.542;2023-04-25T10:43:44;100101.00;;;8.90
64960;BMP180;51487;52.266;10.542;2023-04-25T10:46:17;100099.00;;;9.40
64960;BMP180;51487;52.266;10.542;2023-04-25T10:48:55;100086.00;;;9.30
64960;BMP180;51487;52.266;10.542;2023-04-25T10:51:30;100091.00;;;9.40
64960;BMP180;51487;52.266;10.542;2023-04-25T10:54:06;100092.00;;;9.30
64960;BMP180;51487;52.266;10.542;2023-04-25T10:59:10;100105.00;;;9.30
64960;BMP180;51487;52.266;10.542;2023-04-25T11:01:38;100103.00;;;9.30
64960;BMP180;51487;52.266;10.542;2023-04-25T11:04:06;100093.00;;;9.50
64960;BMP180;51487;52.266;10.542;2023-04-25T11:09:38;100106.00;;;9.10
64960;BMP180;51487;52.266;10.542;2023-04-25T11:12:07;100106.00;;;9.20
64960;BMP180;51487;52.266;10.542;2023-04-25T11:14:34;100106.00;;;9.20
64960;BMP180;51487;52.266;10.542;2023-04-25T11:17:00;100102.00;;;9.40
64960;BMP180;51487;52.266;10.542;2023-04-25T11:19:28;100106.00;;;9.70
64960;BMP180;51487;52.266;10.542;2023-04-25T11:22:02;100107.00;;;9.70
64960;BMP180;51487;52.266;10.542;2023-04-25T11:24:29;100128.00;;;9.30
64960;BMP180;51487;52.266;10.542;2023-04-25T11:26:57;100132.00;;;8.80
64960;BMP180;51487;52.266;10.542;2023-04-25T11:29:26;100138.00;;;8.70
64960;BMP180;51487;52.266;10.542;2023-04-25T11:31:53;100141.00;;;8.40
64960;BMP180;51487;52.266;10.542;2023-04-25T11:34:23;100153.00;;;8.20
64960;BMP180;51487;52.266;10.542;2023-04-25T11:36:50;100158.00;;;8.00
64960;BMP180;51487;52.266;10.542;2023-04-25T11:39:18;100147.00;;;8.20
64960;BMP180;51487;52.266;10.542;2023-04-25T11:41:44;100156.00;;;8.20
64960;BMP180;51487;52.266;10.542;2023-04-25T11:44:10;100154.00;;;8.20
64960;BMP180;51487;52.266;10.542;2023-04-25T11:46:36;100144.00;;;8.10
64960;BMP180;51487;52.266;10.542;2023-04-25T11:49:02;100154.00;;;8.20
64960;BMP180;51487;52.266;10.542;2023-04-25T11:51:29;100154.00;;;7.90
64960;BMP180;51487;52.266;10.542;2023-04-25T11:53:56;100150.00;;;8.50
64960;BMP180;51487;52.266;10.542;2023-04-25T11:56:22;100153.00;;;8.50
64960;BMP180;51487;52.266;10.542;2023-04-25T11:59:12;100145.00;;;8.70
64960;BMP180;51487;52.266;10.542;2023-04-25T12:01:40;100157.00;;;8.70
64960;BMP180;51487;52.266;10.542;2023-04-25T12:04:17;100152.00;;;8.70
64960;BMP180;51487;52.266;10.542;2023-04-25T12:06:45;100142.00;;;8.90
64960;BMP180;51487;52.266;10.542;2023-04-25T12:09:13;100151.00;;;9.10
64960;BMP180;51487;52.266;10.542;2023-04-25T12:11:54;100152.00;;;9.10
64960;BMP180;51487;52.266;10.542;2023-04-25T12:16:54;100154.00;;;9.10
64960;BMP180;51487;52.266;10.542;2023-04-25T12:19:22;100151.00;;;9.50
64960;BMP180;51487;52.266;10.542;2023-04-25T12:21:48;100147.00;;;9.10
64960;BMP180;51487;52.266;10.542;2023-04-25T12:24:17;100151.00;;;9.40
64960;BMP180;51487;52.266;10.542;2023-04-25T12:27:06;100152.00;;;9.20
64960;BMP180;51487;52.266;10.542;2023-04-25T12:29:33;100145.00;;;9.40
64960;BMP180;51487;52.266;10.542;2023-04-25T12:31:59;100166.00;;;9.40
64960;BMP180;51487;52.266;10.542;2023-04-25T12:34:27;100146.00;;;9.70
64960;BMP180;51487;52.266;10.542;2023-04-25T12:36:53;100135.00;;;9.70
64960;BMP180;51487;52.266;10.542;2023-04-25T12:39:23;100154.00;;;10.00
64960;BMP180;51487;52.266;10.542;2023-04-25T12:41:51;100159.00;;;9.70
64960;BMP180;51487;52.266;10.542;2023-04-25T12:44:20;100174.00;;;9.40
64960;BMP180;51487;52.266;10.542;2023-04-25T12:46:46;100175.00;;;9.10
64960;BMP180;51487;52.266;10.542;2023-04-25T12:49:12;100174.00;;;9.20
64960;BMP180;51487;52.266;10.542;2023-04-25T12:51:38;100180.00;;;9.40
64960;BMP180;51487;52.266;10.542;2023-04-25T12:54:05;100185.00;;;9.50
64960;BMP180;51487;52.266;10.542;2023-04-25T12:56:32;100181.00;;;9.10
64960;BMP180;51487;52.266;10.542;2023-04-25T12:58:58;100206.00;;;9.30
64960;BMP180;51487;52.266;10.542;2023-04-25T13:01:24;100193.00;;;8.40
64960;BMP180;51487;52.266;10.542;2023-04-25T13:03:51;100187.00;;;8.50
64960;BMP180;51487;52.266;10.542;2023-04-25T13:06:18;100195.00;;;9.00
64960;BMP180;51487;52.266;10.542;2023-04-25T13:08:45;100208.00;;;9.00
64960;BMP180;51487;52.266;10.542;2023-04-25T13:11:11;100202.00;;;8.70
64960;BMP180;51487;52.266;10.542;2023-04-25T13:13:37;100202.00;;;8.60
64960;BMP180;51487;52.266;10.542;2023-04-25T13:16:04;100198.00;;;8.60
64960;BMP180;51487;52.266;10.542;2023-04-25T13:18:31;100197.00;;;8.70
64960;BMP180;51487;52.266;10.542;2023-04-25T13:20:57;100212.00;;;8.60
64960;BMP180;51487;52.266;10.542;2023-04-25T13:23:26;100191.00;;;8.90
64960;BMP180;51487;52.266;10.542;2023-04-25T13:25:53;100181.00;;;9.20
64960;BMP180;51487;52.266;10.542;2023-04-25T13:28:19;100185.00;;;9.20
64960;BMP180;51487;52.266;10.542;2023-04-25T13:30:45;100187.00;;;9.40
64960;BMP180;51487;52.266;10.542;2023-04-25T13:33:10;100191.00;;;9.80
64960;BMP180;51487;52.266;10.542;2023-04-25T13:35:37;100198.00;;;9.60
64960;BMP180;51487;52.266;10.542;2023-04-25T13:38:03;100201.00;;;9.60
64960;BMP180;51487;52.266;10.542;2023-04-25T13:40:29;100197.00;;;10.10
64960;BMP180;51487;52.266;10.542;2023-04-25T13:42:55;100216.00;;;9.80
64960;BMP180;51487;52.266;10.542;2023-04-25T13:45:21;100208.00;;;9.90
64960;BMP180;51487;52.266;10.542;2023-04-25T13:47:47;100208.00;;;10.20
64960;BMP180;51487;52.266;10.542;2023-04-25T13:50:13;100210.00;;;10.10
64960;BMP180;51487;52.266;10.542;2023-04-25T13:52:40;100214.00;;;10.00
64960;BMP180;51487;52.266;10.542;2023-04-25T13:55:06;100209.00;;;10.10
64960;BMP180;51487;52.266;10.542;2023-04-25T13:57:34;100208.00;;;10.00
64960;BMP180;51487;52.266;10.542;2023-04-25T14:00:00;100215.00;;;10.20
64960;BMP180;51487;52.266;10.542;2023-04-25T14:02:31;100207.00;;;10.30
64960;BMP180;51487;52.266;10.542;2023-04-25T14:04:57;100200.00;;;9.90
64960;BMP180;51487;52.266;10.542;2023-04-25T14:07:22;100213.00;;;10.00
64960;BMP180;51487;52.266;10.542;2023-04-25T14:09:48;100218.00;;;9.80
64960;BMP180;51487;52.266;10.542;2023-04-25T14:12:16;100223.00;;;9.60
64960;BMP180;51487;52.266;10.542;2023-04-25T14:14:41;100227.00;;;9.50